CheckWX is a tool to help pilots better visualize weather data.  It is not intended as a substitute for an official pre-flight weather briefing.

12:50:55 UTC

KROC TAF
Greater Rochester International Airport
Rochester, New York, USA
KROC 201120Z 2012/2112 VRB04KT P6SM SKC FM210100 11005KT P6SM FEW080 FM210200 14005KT P6SM FEW080 FM210500 18005KT P6SM FEW250 FM211100 21004KT P6SM BKN050

Aug-20@
12:00 UTC

Aug-20 @ 12:00 UTC

Aug-21@
01:00 UTC

Aug-21 @ 01:00 UTC

KROC 201120Z 2012/2112 VRB04KT P6SM SKC
Wind
  • Variable at 4 KTS
Cloud Levels
  • Clear skies

Aug-21@
01:00 UTC

Aug-21 @ 01:00 UTC

Aug-21@
02:00 UTC

Aug-21 @ 02:00 UTC

FM210100 11005KT P6SM FEW080

From

From Standard forecast or significant change

Wind
  • 110° at 5 KTS
Cloud Levels
  • Few at 8,000' AGL

Aug-21@
02:00 UTC

Aug-21 @ 02:00 UTC

Aug-21@
05:00 UTC

Aug-21 @ 05:00 UTC

FM210200 14005KT P6SM FEW080

From

From Standard forecast or significant change

Wind
  • 140° at 5 KTS
Cloud Levels
  • Few at 8,000' AGL

Aug-21@
05:00 UTC

Aug-21 @ 05:00 UTC

Aug-21@
11:00 UTC

Aug-21 @ 11:00 UTC

FM210500 18005KT P6SM FEW250

From

From Standard forecast or significant change

Wind
  • 180° at 5 KTS
Cloud Levels
  • Few at 25,000' AGL

Aug-21@
11:00 UTC

Aug-21 @ 11:00 UTC

Aug-21@
12:00 UTC

Aug-21 @ 12:00 UTC

FM211100 21004KT P6SM BKN050

From

From Standard forecast or significant change

Wind
  • 210° at 4 KTS
Cloud Levels
  • Broken at 5,000' AGL